Time;durP1;ratioP1;P1;durP2;ratioP2;P2;SDS_P1;SDS_P2;PMS_P1;PMS_P2;Temp;Humidity;BMP_temperature;BMP_pressure;BME280_temperature;BME280_humidity;BME280_pressure;Samples;Min_cycle;Max_cycle;Signal;HPM_P1;HPM_P2
2022/11/12 00:02:00;;;;;;;;;;;4.80;99.90;;;;;;5007743;28;20023;-77
2022/11/12 00:04:25;;;;;;;;;;;4.70;99.90;;;;;;5004130;28;19917;-76
2022/11/12 00:06:50;;;;;;;;;;;4.60;99.90;;;;;;5003937;28;19909;-77
2022/11/12 00:09:16;;;;;;;;;;;4.60;99.90;;;;;;5009255;28;19921;-77
2022/11/12 00:11:41;;;;;;;;;;;4.50;99.90;;;;;;5007826;28;19913;-76
2022/11/12 00:14:07;;;;;;;;;;;4.40;99.90;;;;;;5002021;28;20348;-77
2022/11/12 00:16:32;;;;;;;;;;;4.30;99.90;;;;;;5003011;28;20000;-77
2022/11/12 00:18:57;;;;;;;;;;;4.40;99.90;;;;;;5012113;28;20108;-77
2022/11/12 00:21:23;;;;;;;;;;;4.40;99.90;;;;;;5008975;28;19968;-77
2022/11/12 00:23:48;;;;;;;;;;;4.50;99.90;;;;;;5007284;28;19968;-77
2022/11/12 00:26:14;;;;;;;;;;;4.50;99.90;;;;;;5008072;28;19972;-77
2022/11/12 00:28:39;;;;;;;;;;;4.50;99.90;;;;;;5018856;28;20348;-77
2022/11/12 00:31:09;;;;;;;;;;;4.50;99.90;;;;;;5008386;28;19933;-77
2022/11/12 00:33:37;;;;;;;;;;;4.50;99.90;;;;;;5014719;28;19917;-77
2022/11/12 00:36:03;;;;;;;;;;;4.40;99.90;;;;;;5009167;28;20269;-77
2022/11/12 00:38:29;;;;;;;;;;;4.40;99.90;;;;;;5011348;28;19920;-77
2022/11/12 00:40:57;;;;;;;;;;;4.40;99.90;;;;;;5020319;28;19910;-77
2022/11/12 00:43:23;;;;;;;;;;;4.30;99.90;;;;;;5013552;28;19913;-77
2022/11/12 00:46:01;;;;;;;;;;;4.20;99.90;;;;;;5003715;28;19925;-77
2022/11/12 00:48:26;;;;;;;;;;;4.30;99.90;;;;;;5003709;28;19917;-77
2022/11/12 00:50:58;;;;;;;;;;;4.40;99.90;;;;;;5017724;28;20326;-77
2022/11/12 00:53:23;;;;;;;;;;;4.50;99.90;;;;;;5024211;28;19909;-77
2022/11/12 00:55:48;;;;;;;;;;;4.50;99.90;;;;;;5014304;28;19967;-77
2022/11/12 00:58:14;;;;;;;;;;;4.50;99.90;;;;;;5008283;28;20266;-77
2022/11/12 01:00:39;;;;;;;;;;;4.40;99.90;;;;;;5009546;28;20343;-77
2022/11/12 01:03:04;;;;;;;;;;;4.40;99.90;;;;;;5020242;28;19925;-78
2022/11/12 01:05:31;;;;;;;;;;;4.40;99.90;;;;;;5007743;28;19917;-77
2022/11/12 01:07:56;;;;;;;;;;;4.30;99.90;;;;;;5014575;28;19913;-76
2022/11/12 01:10:22;;;;;;;;;;;4.40;99.90;;;;;;5005840;28;19918;-76
2022/11/12 01:12:47;;;;;;;;;;;4.40;99.90;;;;;;5008097;28;19913;-77
2022/11/12 01:15:13;;;;;;;;;;;4.50;99.90;;;;;;5007346;28;19918;-76
2022/11/12 01:17:38;;;;;;;;;;;4.40;99.90;;;;;;5007461;28;19918;-77
2022/11/12 01:20:04;;;;;;;;;;;4.30;99.90;;;;;;5003896;28;20387;-77
2022/11/12 01:22:29;;;;;;;;;;;4.30;99.90;;;;;;5008912;28;19918;-77
2022/11/12 01:24:54;;;;;;;;;;;4.30;99.90;;;;;;5019608;28;20013;-76
2022/11/12 01:27:20;;;;;;;;;;;4.30;99.90;;;;;;5012177;28;20375;-77
2022/11/12 01:29:45;;;;;;;;;;;4.20;99.90;;;;;;5004866;28;19921;-77
2022/11/12 01:32:11;;;;;;;;;;;4.10;99.90;;;;;;5012904;28;19922;-77
2022/11/12 01:34:36;;;;;;;;;;;4.10;99.90;;;;;;5011774;28;20008;-77
2022/11/12 01:37:01;;;;;;;;;;;4.10;99.90;;;;;;5023851;28;19936;-77
2022/11/12 01:39:27;;;;;;;;;;;4.20;99.90;;;;;;5007503;28;20007;-77
2022/11/12 01:41:52;;;;;;;;;;;4.20;99.90;;;;;;5004842;28;19918;-77
2022/11/12 01:44:19;;;;;;;;;;;4.20;99.90;;;;;;5005133;28;19977;-77
2022/11/12 01:46:57;;;;;;;;;;;4.20;99.90;;;;;;4996371;28;19917;-77
2022/11/12 01:49:28;;;;;;;;;;;4.20;99.90;;;;;;5011809;28;19909;-77
2022/11/12 01:51:55;;;;;;;;;;;4.30;99.90;;;;;;5009417;28;19918;-77
2022/11/12 01:54:21;;;;;;;;;;;4.20;99.90;;;;;;5011734;28;20313;-77
2022/11/12 01:56:48;;;;;;;;;;;4.10;99.90;;;;;;5007150;28;20008;-77
2022/11/12 01:59:15;;;;;;;;;;;4.00;99.90;;;;;;5022112;28;20676;-77
2022/11/12 02:01:41;;;;;;;;;;;4.00;99.90;;;;;;5003543;28;19921;-77
2022/11/12 02:04:06;;;;;;;;;;;4.10;99.90;;;;;;5011274;28;20329;-77
2022/11/12 02:06:33;;;;;;;;;;;4.10;99.90;;;;;;5002517;28;19914;-76
2022/11/12 02:08:58;;;;;;;;;;;4.10;99.90;;;;;;5007830;28;19922;-77
2022/11/12 02:11:24;;;;;;;;;;;4.10;99.90;;;;;;5001268;28;19913;-77
2022/11/12 02:13:56;;;;;;;;;;;4.10;99.90;;;;;;5007221;28;19917;-77
2022/11/12 02:16:23;;;;;;;;;;;4.20;99.90;;;;;;5007314;28;19921;-77
2022/11/12 02:18:48;;;;;;;;;;;4.20;99.90;;;;;;5009228;28;19925;-77
2022/11/12 02:21:17;;;;;;;;;;;4.10;99.90;;;;;;5003700;28;19914;-77
2022/11/12 02:23:42;;;;;;;;;;;4.10;99.90;;;;;;5010918;28;20353;-77
2022/11/12 02:26:08;;;;;;;;;;;4.10;99.90;;;;;;5004065;28;20076;-77
2022/11/12 02:28:33;;;;;;;;;;;4.00;99.90;;;;;;5006511;28;20011;-77
2022/11/12 02:30:59;;;;;;;;;;;4.00;99.90;;;;;;4998043;28;20029;-77
2022/11/12 02:33:45;;;;;;;;;;;4.10;99.90;;;;;;5010329;28;19909;-77
2022/11/12 02:36:10;;;;;;;;;;;4.00;99.90;;;;;;5016306;28;19928;-77
2022/11/12 02:38:35;;;;;;;;;;;3.90;99.90;;;;;;5006191;28;19936;-77
2022/11/12 02:41:01;;;;;;;;;;;4.00;99.90;;;;;;5010951;28;19953;-77
2022/11/12 02:43:26;;;;;;;;;;;4.10;99.90;;;;;;5007474;28;19920;-77
2022/11/12 02:45:52;;;;;;;;;;;4.10;99.90;;;;;;5012126;28;19922;-77
2022/11/12 02:48:17;;;;;;;;;;;4.20;99.90;;;;;;4996566;28;20791;-77
2022/11/12 02:50:42;;;;;;;;;;;4.10;99.90;;;;;;5009842;28;20756;-78
2022/11/12 02:53:08;;;;;;;;;;;4.10;99.90;;;;;;5013676;28;19909;-77
2022/11/12 02:55:33;;;;;;;;;;;4.00;99.90;;;;;;5001859;28;19941;-77
2022/11/12 02:57:58;;;;;;;;;;;3.90;99.90;;;;;;4996965;28;19913;-77
2022/11/12 03:00:24;;;;;;;;;;;3.80;99.90;;;;;;5002825;28;19920;-77
2022/11/12 03:02:59;;;;;;;;;;;3.90;99.90;;;;;;5003514;28;20008;-77
2022/11/12 03:05:29;;;;;;;;;;;3.80;99.90;;;;;;5008196;28;20365;-76
2022/11/12 03:07:59;;;;;;;;;;;3.90;99.90;;;;;;5008267;28;20353;-77
2022/11/12 03:10:25;;;;;;;;;;;3.80;99.90;;;;;;4999839;28;20612;-76
2022/11/12 03:12:50;;;;;;;;;;;3.80;99.90;;;;;;5005126;28;20008;-77
2022/11/12 03:15:19;;;;;;;;;;;3.70;99.90;;;;;;5003216;28;19917;-77
2022/11/12 03:17:44;;;;;;;;;;;3.80;99.90;;;;;;5001315;28;20945;-77
2022/11/12 03:20:10;;;;;;;;;;;3.80;99.90;;;;;;5001121;28;20012;-76
2022/11/12 03:22:36;;;;;;;;;;;3.90;99.90;;;;;;5009784;28;19996;-77
2022/11/12 03:25:02;;;;;;;;;;;3.90;99.90;;;;;;5006711;28;20010;-76
2022/11/12 03:27:27;;;;;;;;;;;3.80;99.90;;;;;;5006999;28;20521;-76
2022/11/12 03:29:53;;;;;;;;;;;3.80;99.90;;;;;;5005163;28;20347;-77
2022/11/12 03:32:18;;;;;;;;;;;3.90;99.90;;;;;;5005179;28;19944;-77
2022/11/12 03:34:43;;;;;;;;;;;3.80;99.90;;;;;;4999264;28;19924;-76
2022/11/12 03:37:09;;;;;;;;;;;3.80;99.90;;;;;;5010635;28;19914;-76
2022/11/12 03:39:35;;;;;;;;;;;3.70;99.90;;;;;;5006970;28;20371;-77
2022/11/12 03:42:00;;;;;;;;;;;3.70;99.90;;;;;;5001887;28;19909;-77
2022/11/12 03:44:26;;;;;;;;;;;3.70;99.90;;;;;;5004050;28;19937;-76
2022/11/12 03:46:51;;;;;;;;;;;3.70;99.90;;;;;;4997908;28;20375;-76
2022/11/12 03:49:17;;;;;;;;;;;3.80;99.90;;;;;;5001951;28;19917;-76
2022/11/12 03:51:42;;;;;;;;;;;3.70;99.90;;;;;;5005033;28;19917;-76
2022/11/12 03:54:08;;;;;;;;;;;3.60;99.90;;;;;;4999448;28;20002;-76
2022/11/12 03:56:33;;;;;;;;;;;3.60;99.90;;;;;;5002768;28;20036;-76
2022/11/12 03:58:58;;;;;;;;;;;3.70;99.90;;;;;;5001630;28;19914;-76
2022/11/12 04:01:24;;;;;;;;;;;3.70;99.90;;;;;;5002013;28;20308;-76
2022/11/12 04:03:49;;;;;;;;;;;3.50;99.90;;;;;;4999868;28;19914;-76
2022/11/12 04:08:59;;;;;;;;;;;3.50;99.90;;;;;;4999450;28;20431;-76
2022/11/12 04:11:24;;;;;;;;;;;3.50;99.90;;;;;;5006037;28;19909;-76
2022/11/12 04:22:05;;;;;;;;;;;3.30;99.90;;;;;;5005836;28;19972;-77
2022/11/12 04:27:18;;;;;;;;;;;3.40;99.90;;;;;;5006749;28;19920;-77
2022/11/12 04:32:29;;;;;;;;;;;3.40;99.90;;;;;;5004595;28;19967;-77
2022/11/12 04:34:55;;;;;;;;;;;3.40;99.90;;;;;;5012240;28;19925;-77
2022/11/12 04:37:21;;;;;;;;;;;3.30;99.90;;;;;;5008890;28;19940;-77
2022/11/12 04:39:47;;;;;;;;;;;3.30;99.90;;;;;;5009643;28;19940;-77
2022/11/12 04:45:01;;;;;;;;;;;3.20;99.90;;;;;;5003735;28;19929;-77
2022/11/12 04:47:28;;;;;;;;;;;3.20;99.90;;;;;;5002192;28;19928;-77
2022/11/12 04:49:53;;;;;;;;;;;3.20;99.90;;;;;;5004746;28;20439;-77
2022/11/12 04:52:19;;;;;;;;;;;3.10;99.90;;;;;;5007668;28;19913;-77
2022/11/12 04:54:44;;;;;;;;;;;3.10;99.90;;;;;;5006751;28;19921;-77
2022/11/12 04:57:09;;;;;;;;;;;3.10;99.90;;;;;;5003464;28;20387;-78
2022/11/12 04:59:35;;;;;;;;;;;3.10;99.90;;;;;;5003742;28;19929;-77
2022/11/12 05:02:00;;;;;;;;;;;3.10;99.90;;;;;;5010639;28;19917;-77
2022/11/12 05:04:27;;;;;;;;;;;3.20;99.90;;;;;;5007633;28;19917;-77
2022/11/12 05:06:54;;;;;;;;;;;3.20;99.90;;;;;;5009034;28;19924;-77
2022/11/12 05:09:20;;;;;;;;;;;3.20;99.90;;;;;;5011556;28;19929;-78
2022/11/12 05:11:46;;;;;;;;;;;3.10;99.90;;;;;;5006148;28;19928;-77
2022/11/12 05:14:11;;;;;;;;;;;3.20;99.90;;;;;;5009574;28;20353;-78
2022/11/12 05:16:37;;;;;;;;;;;3.10;99.90;;;;;;5003538;28;19913;-77
2022/11/12 05:19:02;;;;;;;;;;;3.10;99.90;;;;;;5002085;28;20403;-77
2022/11/12 05:24:12;;;;;;;;;;;3.10;99.90;;;;;;5009284;28;19932;-77
2022/11/12 05:26:37;;;;;;;;;;;3.10;99.90;;;;;;5006385;28;20412;-77
2022/11/12 05:29:02;;;;;;;;;;;3.00;99.90;;;;;;5011619;28;19913;-77
2022/11/12 05:31:28;;;;;;;;;;;3.00;99.90;;;;;;5012138;28;19917;-77
2022/11/12 05:33:54;;;;;;;;;;;2.90;99.90;;;;;;5020621;28;20416;-77
2022/11/12 05:36:19;;;;;;;;;;;2.80;99.90;;;;;;5010010;28;19913;-77
2022/11/12 05:38:44;;;;;;;;;;;2.90;99.90;;;;;;5008098;28;19913;-77
2022/11/12 05:41:10;;;;;;;;;;;3.00;99.90;;;;;;5010515;28;19932;-77
2022/11/12 05:43:35;;;;;;;;;;;3.00;99.90;;;;;;5012024;28;19909;-77
2022/11/12 05:46:01;;;;;;;;;;;3.00;99.90;;;;;;5006081;28;19921;-77
2022/11/12 05:48:26;;;;;;;;;;;3.00;99.90;;;;;;5005297;28;20686;-77
2022/11/12 05:50:52;;;;;;;;;;;3.00;99.90;;;;;;5007574;28;20368;-77
2022/11/12 05:53:18;;;;;;;;;;;3.00;99.90;;;;;;5004840;28;19926;-77
2022/11/12 05:55:43;;;;;;;;;;;2.90;99.90;;;;;;5010907;28;19913;-77
2022/11/12 05:58:08;;;;;;;;;;;2.90;99.90;;;;;;5010023;28;19921;-77
2022/11/12 06:00:37;;;;;;;;;;;3.00;99.90;;;;;;5012581;28;19925;-76
2022/11/12 06:03:03;;;;;;;;;;;3.00;99.90;;;;;;5018536;28;19972;-76
2022/11/12 06:05:29;;;;;;;;;;;3.00;99.90;;;;;;5020367;28;20012;-77
2022/11/12 06:07:54;;;;;;;;;;;3.00;99.90;;;;;;5018699;28;19952;-77
2022/11/12 06:10:20;;;;;;;;;;;2.90;99.90;;;;;;5018386;28;19913;-78
2022/11/12 06:12:45;;;;;;;;;;;3.00;99.90;;;;;;5016523;28;19913;-78
2022/11/12 06:15:10;;;;;;;;;;;2.90;99.90;;;;;;5006493;28;19913;-77
2022/11/12 06:17:39;;;;;;;;;;;2.90;99.90;;;;;;5001925;28;19930;-81
2022/11/12 06:20:05;;;;;;;;;;;2.90;99.90;;;;;;5004807;28;20225;-76
2022/11/12 06:22:30;;;;;;;;;;;3.00;99.90;;;;;;5005617;28;19920;-76
2022/11/12 06:24:56;;;;;;;;;;;3.00;99.90;;;;;;5004772;28;19929;-76
2022/11/12 06:27:22;;;;;;;;;;;3.00;99.90;;;;;;5003161;28;20000;-76
2022/11/12 06:29:48;;;;;;;;;;;2.90;99.90;;;;;;5003180;28;20359;-76
2022/11/12 06:32:13;;;;;;;;;;;3.00;99.90;;;;;;5006982;28;19913;-77
2022/11/12 06:34:39;;;;;;;;;;;3.00;99.90;;;;;;4998809;28;20040;-76
2022/11/12 06:37:04;;;;;;;;;;;3.00;99.90;;;;;;5002639;28;20390;-76
2022/11/12 06:39:29;;;;;;;;;;;3.00;99.90;;;;;;5001507;28;19913;-76
2022/11/12 06:41:55;;;;;;;;;;;3.10;99.90;;;;;;5005129;28;19917;-77
2022/11/12 06:44:20;;;;;;;;;;;3.00;99.90;;;;;;5003672;28;20443;-77
2022/11/12 06:46:46;;;;;;;;;;;3.00;99.90;;;;;;5004212;28;20388;-76
2022/11/12 06:49:11;;;;;;;;;;;3.10;99.90;;;;;;5004114;28;19968;-76
2022/11/12 06:51:38;;;;;;;;;;;3.20;99.90;;;;;;5001967;28;19920;-77
2022/11/12 06:54:04;;;;;;;;;;;3.20;99.90;;;;;;5005710;28;20388;-77
2022/11/12 06:56:29;;;;;;;;;;;3.20;99.90;;;;;;5004123;28;19917;-76
2022/11/12 06:58:55;;;;;;;;;;;3.60;99.90;;;;;;5004935;28;19921;-77
2022/11/12 07:01:20;;;;;;;;;;;3.90;99.90;;;;;;5002720;28;19918;-77
2022/11/12 07:03:49;;;;;;;;;;;4.10;99.90;;;;;;5007048;28;19917;-77
2022/11/12 07:06:17;;;;;;;;;;;4.20;99.90;;;;;;5005480;28;19925;-77
2022/11/12 07:08:43;;;;;;;;;;;4.60;99.90;;;;;;5003512;28;19967;-75
2022/11/12 07:11:09;;;;;;;;;;;4.80;99.90;;;;;;5003770;28;19930;-76
2022/11/12 07:13:34;;;;;;;;;;;4.90;99.90;;;;;;5004341;28;19917;-76
2022/11/12 07:16:00;;;;;;;;;;;4.80;99.90;;;;;;5002956;28;19917;-76
2022/11/12 07:18:26;;;;;;;;;;;4.80;99.90;;;;;;5005002;28;19922;-76
2022/11/12 07:20:56;;;;;;;;;;;4.90;99.90;;;;;;5005139;28;19925;-76
2022/11/12 07:23:22;;;;;;;;;;;4.80;99.90;;;;;;5003824;28;20641;-76
2022/11/12 07:25:53;;;;;;;;;;;4.70;99.90;;;;;;5005105;28;20077;-77
2022/11/12 07:28:19;;;;;;;;;;;4.80;99.90;;;;;;5002413;28;19941;-77
2022/11/12 07:30:44;;;;;;;;;;;4.80;99.90;;;;;;5004467;28;19975;-77
2022/11/12 07:33:09;;;;;;;;;;;4.70;99.90;;;;;;5005905;28;19922;-76
2022/11/12 07:35:35;;;;;;;;;;;4.80;99.90;;;;;;5002851;28;19921;-77
2022/11/12 07:38:00;;;;;;;;;;;4.90;99.90;;;;;;5001597;28;19909;-76
2022/11/12 07:40:26;;;;;;;;;;;4.90;99.90;;;;;;5003225;28;19913;-76
2022/11/12 07:42:51;;;;;;;;;;;5.00;99.90;;;;;;5004903;28;19909;-76
2022/11/12 07:45:16;;;;;;;;;;;5.00;99.90;;;;;;5004414;28;19925;-76
2022/11/12 07:47:42;;;;;;;;;;;5.00;99.90;;;;;;5005679;28;19977;-76
2022/11/12 07:50:07;;;;;;;;;;;5.10;99.90;;;;;;4999450;28;19971;-75
2022/11/12 07:52:33;;;;;;;;;;;5.20;99.90;;;;;;5004985;28;19913;-77
2022/11/12 07:54:58;;;;;;;;;;;5.30;99.90;;;;;;5017958;28;19959;-77
2022/11/12 07:57:27;;;;;;;;;;;5.60;99.90;;;;;;5024629;28;19909;-76
2022/11/12 07:59:52;;;;;;;;;;;5.80;99.90;;;;;;5016185;28;19960;-76
2022/11/12 08:02:17;;;;;;;;;;;6.10;99.90;;;;;;5009447;28;20406;-77
2022/11/12 08:04:43;;;;;;;;;;;6.30;99.90;;;;;;5006385;28;19924;-77
2022/11/12 08:07:08;;;;;;;;;;;6.40;99.90;;;;;;5012265;28;19924;-77
2022/11/12 08:09:34;;;;;;;;;;;6.60;99.90;;;;;;5005075;28;20548;-77
2022/11/12 08:11:59;;;;;;;;;;;6.60;99.90;;;;;;5007316;28;20380;-76
2022/11/12 08:14:24;;;;;;;;;;;6.80;99.90;;;;;;5003419;28;19917;-77
2022/11/12 08:16:50;;;;;;;;;;;6.90;99.90;;;;;;5008319;28;19925;-77
2022/11/12 08:19:15;;;;;;;;;;;7.30;99.90;;;;;;5008075;28;19964;-78
2022/11/12 08:22:00;;;;;;;;;;;7.40;99.90;;;;;;5015103;28;20357;-78
2022/11/12 08:24:25;;;;;;;;;;;7.30;99.90;;;;;;5000357;28;19917;-77
2022/11/12 08:26:51;;;;;;;;;;;7.20;99.90;;;;;;5003755;28;19975;-76
2022/11/12 08:29:16;;;;;;;;;;;7.20;99.90;;;;;;5021256;28;20391;-77
2022/11/12 08:31:41;;;;;;;;;;;7.30;99.90;;;;;;5005543;28;19917;-77
2022/11/12 08:34:13;;;;;;;;;;;7.40;99.90;;;;;;5013651;28;19979;-79
2022/11/12 08:36:39;;;;;;;;;;;7.60;99.90;;;;;;5008689;28;19924;-77
2022/11/12 08:39:05;;;;;;;;;;;7.90;99.90;;;;;;5007501;28;20357;-77
2022/11/12 08:41:31;;;;;;;;;;;8.40;99.90;;;;;;5028569;28;19915;-76
2022/11/12 08:43:57;;;;;;;;;;;8.80;99.90;;;;;;5010794;28;21793;-76
2022/11/12 08:46:22;;;;;;;;;;;9.30;99.90;;;;;;5013058;28;19964;-76
2022/11/12 08:48:48;;;;;;;;;;;9.50;99.90;;;;;;5006507;28;19932;-76
2022/11/12 08:51:13;;;;;;;;;;;9.60;99.90;;;;;;5019205;28;20377;-76
2022/11/12 08:53:39;;;;;;;;;;;9.50;99.90;;;;;;5020028;28;19913;-77
2022/11/12 08:56:04;;;;;;;;;;;9.40;99.90;;;;;;5024585;28;19913;-76
2022/11/12 08:58:30;;;;;;;;;;;9.50;99.90;;;;;;5001538;28;19914;-76
2022/11/12 09:00:56;;;;;;;;;;;9.40;99.90;;;;;;5017409;28;19948;-76
2022/11/12 09:03:22;;;;;;;;;;;9.20;99.90;;;;;;5009806;28;19972;-72
2022/11/12 09:05:47;;;;;;;;;;;9.40;99.90;;;;;;5021557;28;20015;-74
2022/11/12 09:08:15;;;;;;;;;;;9.80;99.90;;;;;;5016216;28;20029;-73
2022/11/12 09:10:40;;;;;;;;;;;10.10;99.90;;;;;;5016951;28;19921;-75
2022/11/12 09:13:06;;;;;;;;;;;10.00;99.90;;;;;;5008924;28;19909;-74
2022/11/12 09:15:32;;;;;;;;;;;9.90;99.90;;;;;;5008593;28;19914;-75
2022/11/12 09:17:58;;;;;;;;;;;9.90;99.90;;;;;;5012443;28;19917;-71
2022/11/12 09:20:24;;;;;;;;;;;10.10;99.90;;;;;;5021005;28;19913;-73
2022/11/12 09:22:50;;;;;;;;;;;10.20;99.90;;;;;;5009378;28;20052;-78
2022/11/12 09:25:15;;;;;;;;;;;10.30;99.90;;;;;;5018703;28;20036;-76
2022/11/12 09:27:41;;;;;;;;;;;10.40;99.90;;;;;;5012186;28;19913;-86
2022/11/12 09:30:06;;;;;;;;;;;10.50;99.90;;;;;;5010549;28;19984;-81
2022/11/12 09:32:32;;;;;;;;;;;10.70;99.90;;;;;;5008553;28;20487;-77
2022/11/12 09:34:57;;;;;;;;;;;10.80;99.90;;;;;;5008951;28;19910;-77
2022/11/12 09:37:23;;;;;;;;;;;11.00;99.90;;;;;;5001821;28;19996;-77
2022/11/12 09:39:48;;;;;;;;;;;11.20;99.90;;;;;;5018415;28;19996;-77
2022/11/12 09:42:18;;;;;;;;;;;11.40;99.90;;;;;;5009013;28;20132;-77
2022/11/12 09:44:48;;;;;;;;;;;11.60;99.90;;;;;;5029900;28;19921;-77
2022/11/12 09:47:19;;;;;;;;;;;11.70;99.90;;;;;;5016082;28;20027;-77
2022/11/12 09:49:50;;;;;;;;;;;11.80;99.90;;;;;;4998421;28;19916;-77
2022/11/12 09:52:20;;;;;;;;;;;11.90;99.90;;;;;;5002109;28;19918;-78
2022/11/12 09:54:49;;;;;;;;;;;12.00;99.90;;;;;;5021678;28;19957;-76
2022/11/12 09:57:14;;;;;;;;;;;12.10;99.90;;;;;;5006638;28;19918;-75
2022/11/12 09:59:40;;;;;;;;;;;12.20;99.90;;;;;;5007633;28;19916;-74
2022/11/12 10:02:25;;;;;;;;;;;12.20;99.90;;;;;;5011336;28;20541;-74
2022/11/12 10:04:55;;;;;;;;;;;12.40;99.90;;;;;;5005893;28;19928;-73
2022/11/12 10:07:26;;;;;;;;;;;12.70;99.90;;;;;;5022667;28;19910;-71
2022/11/12 10:10:04;;;;;;;;;;;12.90;99.90;;;;;;5006033;28;19917;-72
2022/11/12 10:12:35;;;;;;;;;;;12.90;99.90;;;;;;5005939;28;19906;-72
2022/11/12 10:18:04;;;;;;;;;;;13.00;99.90;;;;;;5004360;28;19921;-73
2022/11/12 10:20:47;;;;;;;;;;;12.90;99.90;;;;;;5013514;28;20494;-73
2022/11/12 10:23:21;;;;;;;;;;;13.00;99.90;;;;;;5025351;28;19909;-71
2022/11/12 10:25:48;;;;;;;;;;;13.40;99.90;;;;;;5005612;28;19918;-73
2022/11/12 10:28:27;;;;;;;;;;;13.50;99.90;;;;;;5005032;28;19956;-72
2022/11/12 10:30:56;;;;;;;;;;;13.40;99.90;;;;;;5015674;28;20459;-72
2022/11/12 10:33:21;;;;;;;;;;;13.60;99.90;;;;;;5010496;28;20353;-71
2022/11/12 10:35:47;;;;;;;;;;;13.60;99.90;;;;;;5011507;28;19920;-72
2022/11/12 10:38:14;;;;;;;;;;;13.50;99.90;;;;;;5010989;28;20484;-72
2022/11/12 10:40:40;;;;;;;;;;;13.40;99.90;;;;;;5009886;28;20327;-72
2022/11/12 10:43:15;;;;;;;;;;;13.50;99.90;;;;;;5022877;28;19909;-71
2022/11/12 10:45:41;;;;;;;;;;;13.60;99.90;;;;;;5007949;28;19927;-72
2022/11/12 10:48:19;;;;;;;;;;;13.90;99.90;;;;;;5027407;28;19956;-73
2022/11/12 10:50:47;;;;;;;;;;;14.00;99.90;;;;;;5024730;28;20004;-71
2022/11/12 10:53:26;;;;;;;;;;;14.50;99.90;;;;;;5020503;28;20024;-73
2022/11/12 10:55:56;;;;;;;;;;;14.80;99.90;;;;;;5010415;28;20384;-73
2022/11/12 10:58:21;;;;;;;;;;;15.00;99.90;;;;;;5005947;28;20063;-72
2022/11/12 11:00:50;;;;;;;;;;;15.30;99.90;;;;;;4998483;28;19917;-73
2022/11/12 11:03:20;;;;;;;;;;;15.70;99.90;;;;;;5007661;28;20237;-71
2022/11/12 11:05:49;;;;;;;;;;;15.90;99.90;;;;;;5021669;28;20012;-72
2022/11/12 11:08:30;;;;;;;;;;;16.20;99.90;;;;;;5009961;28;20312;-72
2022/11/12 11:11:14;;;;;;;;;;;16.40;99.90;;;;;;5014913;28;19948;-72
2022/11/12 11:13:39;;;;;;;;;;;16.70;98.60;;;;;;5012504;28;19913;-72
2022/11/12 11:16:06;;;;;;;;;;;17.30;97.50;;;;;;5008926;28;19991;-72
2022/11/12 11:18:33;;;;;;;;;;;17.10;96.50;;;;;;5020695;28;19917;-72
2022/11/12 11:21:05;;;;;;;;;;;18.40;92.40;;;;;;5021291;28;19913;-72
2022/11/12 11:23:38;;;;;;;;;;;18.20;91.50;;;;;;5009964;28;20016;-72
2022/11/12 11:26:15;;;;;;;;;;;18.10;91.20;;;;;;5003357;28;19921;-72
2022/11/12 11:28:52;;;;;;;;;;;17.80;92.00;;;;;;5016295;28;19913;-72
2022/11/12 11:31:20;;;;;;;;;;;17.90;91.40;;;;;;5014512;28;19925;-72
2022/11/12 11:33:46;;;;;;;;;;;18.30;90.80;;;;;;5028524;28;20007;-73
2022/11/12 11:36:23;;;;;;;;;;;19.40;87.00;;;;;;5007511;28;20416;-72
2022/11/12 11:38:54;;;;;;;;;;;20.10;82.20;;;;;;5024809;28;19910;-72
2022/11/12 11:41:29;;;;;;;;;;;21.00;80.10;;;;;;5016950;28;19917;-72
2022/11/12 11:44:03;;;;;;;;;;;21.70;74.00;;;;;;5005063;28;20104;-72
2022/11/12 11:46:32;;;;;;;;;;;22.90;70.20;;;;;;5010726;28;20383;-72
2022/11/12 11:49:04;;;;;;;;;;;25.80;62.20;;;;;;5020985;28;20012;-72
2022/11/12 11:51:36;;;;;;;;;;;26.10;56.60;;;;;;5013561;28;19914;-72
2022/11/12 11:54:25;;;;;;;;;;;26.30;55.70;;;;;;5018543;28;20031;-71
2022/11/12 11:56:53;;;;;;;;;;;27.00;54.70;;;;;;4967086;28;19928;-70
2022/11/12 11:59:29;;;;;;;;;;;26.60;57.30;;;;;;5015861;28;20380;-69
2022/11/12 12:02:03;;;;;;;;;;;27.20;53.30;;;;;;5003151;28;20032;-72
2022/11/12 12:04:55;;;;;;;;;;;28.40;52.30;;;;;;5015666;28;19948;-71
2022/11/12 12:07:27;;;;;;;;;;;29.30;50.10;;;;;;5010456;28;19920;-70
2022/11/12 12:10:13;;;;;;;;;;;27.70;52.20;;;;;;5019022;28;19948;-72
2022/11/12 12:12:47;;;;;;;;;;;26.80;53.50;;;;;;5000491;28;20423;-71
2022/11/12 12:15:31;;;;;;;;;;;27.00;51.70;;;;;;5016384;28;19914;-72
2022/11/12 12:18:01;;;;;;;;;;;25.20;54.70;;;;;;5024635;28;19963;-73
2022/11/12 12:20:37;;;;;;;;;;;27.90;51.50;;;;;;5019824;28;19918;-73
2022/11/12 12:23:04;;;;;;;;;;;29.30;48.80;;;;;;5011256;28;20325;-73
2022/11/12 12:25:33;;;;;;;;;;;30.20;46.90;;;;;;5010030;28;20056;-73
2022/11/12 12:28:01;;;;;;;;;;;30.70;45.60;;;;;;5025209;28;19999;-73
2022/11/12 12:30:28;;;;;;;;;;;30.00;45.60;;;;;;5020499;28;19943;-73
2022/11/12 12:32:56;;;;;;;;;;;29.10;47.00;;;;;;5026581;28;19928;-72
2022/11/12 12:35:39;;;;;;;;;;;28.40;48.40;;;;;;5009503;28;19944;-72
2022/11/12 12:38:13;;;;;;;;;;;24.60;54.20;;;;;;5020983;28;19952;-72
2022/11/12 12:41:01;;;;;;;;;;;25.10;55.40;;;;;;5013497;28;19984;-72
2022/11/12 12:43:30;;;;;;;;;;;26.40;52.20;;;;;;4996782;28;19920;-71
2022/11/12 12:45:56;;;;;;;;;;;25.50;52.60;;;;;;5008958;28;19925;-70
2022/11/12 12:48:35;;;;;;;;;;;24.90;54.10;;;;;;5012965;28;19979;-73
2022/11/12 12:51:01;;;;;;;;;;;24.20;56.50;;;;;;5010330;28;20012;-73
2022/11/12 12:53:26;;;;;;;;;;;24.40;56.70;;;;;;5010010;28;20004;-73
2022/11/12 12:55:53;;;;;;;;;;;25.10;54.90;;;;;;5013772;28;19913;-74
2022/11/12 12:58:26;;;;;;;;;;;22.40;58.80;;;;;;5011618;28;20365;-72
2022/11/12 13:00:53;;;;;;;;;;;20.30;66.00;;;;;;5026452;28;19913;-74
2022/11/12 13:03:37;;;;;;;;;;;19.00;73.20;;;;;;5019402;28;19914;-74
2022/11/12 13:06:06;;;;;;;;;;;17.90;77.20;;;;;;5016926;28;19917;-73
2022/11/12 13:08:34;;;;;;;;;;;17.20;81.10;;;;;;5005384;28;19914;-72
2022/11/12 13:11:00;;;;;;;;;;;17.20;85.70;;;;;;5008946;28;20313;-76
2022/11/12 13:13:27;;;;;;;;;;;17.60;84.80;;;;;;5012348;28;19921;-75
2022/11/12 13:15:56;;;;;;;;;;;19.00;80.20;;;;;;5009430;28;19914;-76
2022/11/12 13:18:37;;;;;;;;;;;18.50;80.90;;;;;;5000814;28;19921;-75
2022/11/12 13:21:13;;;;;;;;;;;17.20;85.60;;;;;;5000294;28;19960;-74
2022/11/12 13:26:42;;;;;;;;;;;16.00;92.30;;;;;;5010664;28;19944;-73
2022/11/12 13:29:37;;;;;;;;;;;16.00;93.30;;;;;;5014168;28;19910;-74
2022/11/12 13:32:21;;;;;;;;;;;15.70;93.50;;;;;;5014399;28;19963;-76
2022/11/12 13:34:46;;;;;;;;;;;15.30;95.20;;;;;;5020414;28;19928;-80
2022/11/12 13:37:18;;;;;;;;;;;15.20;95.70;;;;;;5014279;28;19921;-77
2022/11/12 13:39:44;;;;;;;;;;;15.00;98.40;;;;;;5007126;28;19914;-75
2022/11/12 13:44:59;;;;;;;;;;;14.40;99.50;;;;;;5008314;28;20694;-78
2022/11/12 13:47:27;;;;;;;;;;;14.40;99.90;;;;;;5012733;28;19952;-75
2022/11/12 13:49:53;;;;;;;;;;;14.40;99.90;;;;;;5008806;28;19919;-78
2022/11/12 13:52:19;;;;;;;;;;;14.10;99.90;;;;;;5007029;28;20444;-76
2022/11/12 13:54:44;;;;;;;;;;;14.10;99.90;;;;;;5022492;28;19913;-78
2022/11/12 13:57:12;;;;;;;;;;;13.90;99.90;;;;;;5013937;28;19914;-78
2022/11/12 13:59:38;;;;;;;;;;;13.80;99.90;;;;;;5018190;28;19942;-80
2022/11/12 14:02:15;;;;;;;;;;;13.60;99.90;;;;;;5010812;28;19944;-78
2022/11/12 14:04:40;;;;;;;;;;;13.50;99.90;;;;;;5007901;28;19920;-79
2022/11/12 14:07:16;;;;;;;;;;;13.40;99.90;;;;;;5019136;28;21883;-80
2022/11/12 14:09:42;;;;;;;;;;;13.20;99.90;;;;;;5010191;28;20020;-86
2022/11/12 14:12:22;;;;;;;;;;;13.00;99.90;;;;;;5012625;28;20028;-79
2022/11/12 14:15:05;;;;;;;;;;;13.00;99.90;;;;;;5008785;28;19967;-78
2022/11/12 14:17:41;;;;;;;;;;;13.10;99.90;;;;;;4999134;28;19914;-77
2022/11/12 14:20:07;;;;;;;;;;;13.50;99.90;;;;;;5004686;28;19917;-77
2022/11/12 14:22:39;;;;;;;;;;;13.90;99.90;;;;;;5000725;28;19924;-76
2022/11/12 14:25:16;;;;;;;;;;;13.50;99.90;;;;;;5006313;28;19922;-77
2022/11/12 14:27:41;;;;;;;;;;;13.10;99.90;;;;;;5013728;28;20558;-78
2022/11/12 14:30:07;;;;;;;;;;;13.00;99.90;;;;;;5006397;28;19979;-79
2022/11/12 14:32:36;;;;;;;;;;;12.30;99.90;;;;;;4984953;28;20166;-80
2022/11/12 14:35:17;;;;;;;;;;;11.90;99.90;;;;;;5017564;28;19920;-76
2022/11/12 14:37:45;;;;;;;;;;;11.70;99.90;;;;;;5011581;28;19940;-77
2022/11/12 14:40:15;;;;;;;;;;;11.30;99.90;;;;;;5010386;28;19992;-77
2022/11/12 14:42:40;;;;;;;;;;;11.00;99.90;;;;;;5007453;28;20357;-81
2022/11/12 14:45:13;;;;;;;;;;;10.80;99.90;;;;;;4998780;28;19928;-77
2022/11/12 14:47:38;;;;;;;;;;;10.60;99.90;;;;;;5016926;28;20375;-76
2022/11/12 14:50:04;;;;;;;;;;;10.40;99.90;;;;;;5006444;28;19917;-77
2022/11/12 14:52:31;;;;;;;;;;;10.30;99.90;;;;;;5007526;28;20312;-77
2022/11/12 14:54:59;;;;;;;;;;;10.20;99.90;;;;;;5008366;28;20359;-76
2022/11/12 14:57:29;;;;;;;;;;;10.00;99.90;;;;;;5016480;28;19917;-77
2022/11/12 14:59:55;;;;;;;;;;;9.80;99.90;;;;;;5010551;28;19913;-77
2022/11/12 15:02:27;;;;;;;;;;;9.50;99.90;;;;;;5006688;28;20443;-76